sensor_id;sensor_type;location;lat;lon;timestamp;temperature;humidity
66752;SHT31;53663;42.676;23.238;2022-11-15T00:01:49;3.20;85.99
66752;SHT31;53663;42.676;23.238;2022-11-15T00:04:33;3.17;85.81
66752;SHT31;53663;42.676;23.238;2022-11-15T00:07:17;3.13;85.55
66752;SHT31;53663;42.676;23.238;2022-11-15T00:10:01;3.13;85.48
66752;SHT31;53663;42.676;23.238;2022-11-15T00:12:45;3.13;85.72
66752;SHT31;53663;42.676;23.238;2022-11-15T00:15:29;3.11;86.01
66752;SHT31;53663;42.676;23.238;2022-11-15T00:18:14;3.08;86.00
66752;SHT31;53663;42.676;23.238;2022-11-15T00:21:04;3.00;85.76
66752;SHT31;53663;42.676;23.238;2022-11-15T00:23:49;3.01;85.80
66752;SHT31;53663;42.676;23.238;2022-11-15T00:26:33;3.03;86.43
66752;SHT31;53663;42.676;23.238;2022-11-15T00:29:17;3.04;86.64
66752;SHT31;53663;42.676;23.238;2022-11-15T00:32:01;3.03;86.45
66752;SHT31;53663;42.676;23.238;2022-11-15T00:34:45;3.01;86.47
66752;SHT31;53663;42.676;23.238;2022-11-15T00:37:29;3.00;86.43
66752;SHT31;53663;42.676;23.238;2022-11-15T00:40:14;2.95;86.42
66752;SHT31;53663;42.676;23.238;2022-11-15T00:42:58;2.90;86.31
66752;SHT31;53663;42.676;23.238;2022-11-15T00:45:42;2.89;86.00
66752;SHT31;53663;42.676;23.238;2022-11-15T00:48:26;2.95;85.90
66752;SHT31;53663;42.676;23.238;2022-11-15T00:51:10;2.85;85.92
66752;SHT31;53663;42.676;23.238;2022-11-15T00:53:54;2.87;86.02
66752;SHT31;53663;42.676;23.238;2022-11-15T00:56:38;2.86;86.13
66752;SHT31;53663;42.676;23.238;2022-11-15T00:59:22;2.87;86.00
66752;SHT31;53663;42.676;23.238;2022-11-15T01:02:06;2.80;86.01
66752;SHT31;53663;42.676;23.238;2022-11-15T01:04:49;2.82;85.75
66752;SHT31;53663;42.676;23.238;2022-11-15T01:07:33;2.83;85.92
66752;SHT31;53663;42.676;23.238;2022-11-15T01:10:18;2.77;85.89
66752;SHT31;53663;42.676;23.238;2022-11-15T01:13:02;2.77;85.90
66752;SHT31;53663;42.676;23.238;2022-11-15T01:15:46;2.73;86.09
66752;SHT31;53663;42.676;23.238;2022-11-15T01:18:30;2.76;86.02
66752;SHT31;53663;42.676;23.238;2022-11-15T01:21:17;2.75;85.96
66752;SHT31;53663;42.676;23.238;2022-11-15T01:24:01;2.76;86.28
66752;SHT31;53663;42.676;23.238;2022-11-15T01:26:45;2.71;86.13
66752;SHT31;53663;42.676;23.238;2022-11-15T01:29:29;2.65;86.36
66752;SHT31;53663;42.676;23.238;2022-11-15T01:32:13;2.60;86.81
66752;SHT31;53663;42.676;23.238;2022-11-15T01:34:57;2.60;86.66
66752;SHT31;53663;42.676;23.238;2022-11-15T01:37:41;2.63;86.46
66752;SHT31;53663;42.676;23.238;2022-11-15T01:40:25;2.62;86.30
66752;SHT31;53663;42.676;23.238;2022-11-15T01:46:26;2.66;86.51
66752;SHT31;53663;42.676;23.238;2022-11-15T01:49:15;2.63;86.64
66752;SHT31;53663;42.676;23.238;2022-11-15T01:52:02;2.63;86.77
66752;SHT31;53663;42.676;23.238;2022-11-15T01:54:49;2.62;86.78
66752;SHT31;53663;42.676;23.238;2022-11-15T01:57:34;2.55;87.01
66752;SHT31;53663;42.676;23.238;2022-11-15T02:00:19;2.59;86.81
66752;SHT31;53663;42.676;23.238;2022-11-15T02:03:02;2.58;86.61
66752;SHT31;53663;42.676;23.238;2022-11-15T02:05:47;2.53;86.46
66752;SHT31;53663;42.676;23.238;2022-11-15T02:08:30;2.56;86.66
66752;SHT31;53663;42.676;23.238;2022-11-15T02:11:15;2.58;86.80
66752;SHT31;53663;42.676;23.238;2022-11-15T02:14:00;2.55;86.63
66752;SHT31;53663;42.676;23.238;2022-11-15T02:20:00;2.50;86.57
66752;SHT31;53663;42.676;23.238;2022-11-15T02:23:14;2.56;86.41
66752;SHT31;53663;42.676;23.238;2022-11-15T02:29:05;2.52;86.55
66752;SHT31;53663;42.676;23.238;2022-11-15T02:35:53;2.39;86.67
66752;SHT31;53663;42.676;23.238;2022-11-15T02:38:57;2.34;86.68
66752;SHT31;53663;42.676;23.238;2022-11-15T02:41:51;2.37;86.52
66752;SHT31;53663;42.676;23.238;2022-11-15T02:44:39;2.32;86.54
66752;SHT31;53663;42.676;23.238;2022-11-15T02:47:27;2.31;86.61
66752;SHT31;53663;42.676;23.238;2022-11-15T02:50:17;2.32;86.65
66752;SHT31;53663;42.676;23.238;2022-11-15T02:53:02;2.28;86.82
66752;SHT31;53663;42.676;23.238;2022-11-15T02:55:48;2.24;87.19
66752;SHT31;53663;42.676;23.238;2022-11-15T03:08:31;2.31;87.27
66752;SHT31;53663;42.676;23.238;2022-11-15T03:11:20;2.39;86.97
66752;SHT31;53663;42.676;23.238;2022-11-15T03:20:05;2.55;86.59
66752;SHT31;53663;42.676;23.238;2022-11-15T03:22:50;2.72;86.51
66752;SHT31;53663;42.676;23.238;2022-11-15T03:25:41;2.80;86.28
66752;SHT31;53663;42.676;23.238;2022-11-15T03:28:39;2.95;85.91
66752;SHT31;53663;42.676;23.238;2022-11-15T03:31:27;3.03;85.79
66752;SHT31;53663;42.676;23.238;2022-11-15T03:34:39;3.17;86.18
66752;SHT31;53663;42.676;23.238;2022-11-15T03:37:30;3.30;86.70
66752;SHT31;53663;42.676;23.238;2022-11-15T03:40:17;3.35;86.74
66752;SHT31;53663;42.676;23.238;2022-11-15T03:46:14;3.44;86.66
66752;SHT31;53663;42.676;23.238;2022-11-15T03:49:11;3.28;87.00
66752;SHT31;53663;42.676;23.238;2022-11-15T03:51:57;3.42;87.05
66752;SHT31;53663;42.676;23.238;2022-11-15T03:54:56;3.55;87.25
66752;SHT31;53663;42.676;23.238;2022-11-15T03:57:40;3.64;87.67
66752;SHT31;53663;42.676;23.238;2022-11-15T04:00:25;3.71;87.88
66752;SHT31;53663;42.676;23.238;2022-11-15T04:03:09;3.72;87.90
66752;SHT31;53663;42.676;23.238;2022-11-15T04:05:53;3.78;88.13
66752;SHT31;53663;42.676;23.238;2022-11-15T04:08:37;3.82;88.05
66752;SHT31;53663;42.676;23.238;2022-11-15T04:11:21;3.76;88.02
66752;SHT31;53663;42.676;23.238;2022-11-15T04:14:04;3.76;88.59
66752;SHT31;53663;42.676;23.238;2022-11-15T04:16:48;3.75;88.76
66752;SHT31;53663;42.676;23.238;2022-11-15T04:19:32;3.72;88.73
66752;SHT31;53663;42.676;23.238;2022-11-15T04:22:35;3.52;88.49
66752;SHT31;53663;42.676;23.238;2022-11-15T04:25:38;3.44;89.60
66752;SHT31;53663;42.676;23.238;2022-11-15T04:28:23;3.56;89.51
66752;SHT31;53663;42.676;23.238;2022-11-15T04:31:06;3.59;89.49
66752;SHT31;53663;42.676;23.238;2022-11-15T04:33:50;3.66;89.29
66752;SHT31;53663;42.676;23.238;2022-11-15T04:36:35;3.76;89.12
66752;SHT31;53663;42.676;23.238;2022-11-15T04:39:41;3.78;88.93
66752;SHT31;53663;42.676;23.238;2022-11-15T04:42:25;3.83;88.90
66752;SHT31;53663;42.676;23.238;2022-11-15T04:45:10;3.89;89.07
66752;SHT31;53663;42.676;23.238;2022-11-15T04:47:54;3.97;89.00
66752;SHT31;53663;42.676;23.238;2022-11-15T04:50:38;3.87;89.28
66752;SHT31;53663;42.676;23.238;2022-11-15T04:53:21;4.00;89.53
66752;SHT31;53663;42.676;23.238;2022-11-15T04:56:05;4.04;89.34
66752;SHT31;53663;42.676;23.238;2022-11-15T04:58:50;3.94;89.52
66752;SHT31;53663;42.676;23.238;2022-11-15T05:01:34;4.02;89.97
66752;SHT31;53663;42.676;23.238;2022-11-15T05:04:18;4.10;89.99
66752;SHT31;53663;42.676;23.238;2022-11-15T05:07:05;4.11;89.87
66752;SHT31;53663;42.676;23.238;2022-11-15T05:09:49;4.13;89.25
66752;SHT31;53663;42.676;23.238;2022-11-15T05:12:33;4.02;89.22
66752;SHT31;53663;42.676;23.238;2022-11-15T05:15:17;4.11;89.34
66752;SHT31;53663;42.676;23.238;2022-11-15T05:18:01;4.10;89.07
66752;SHT31;53663;42.676;23.238;2022-11-15T05:20:44;3.97;89.40
66752;SHT31;53663;42.676;23.238;2022-11-15T05:23:28;3.93;90.00
66752;SHT31;53663;42.676;23.238;2022-11-15T05:26:13;4.07;89.75
66752;SHT31;53663;42.676;23.238;2022-11-15T05:28:59;4.09;88.79
66752;SHT31;53663;42.676;23.238;2022-11-15T05:31:43;4.09;87.82
66752;SHT31;53663;42.676;23.238;2022-11-15T05:34:26;4.11;86.58
66752;SHT31;53663;42.676;23.238;2022-11-15T05:37:11;3.97;86.96
66752;SHT31;53663;42.676;23.238;2022-11-15T05:39:54;3.79;88.12
66752;SHT31;53663;42.676;23.238;2022-11-15T05:42:39;3.61;88.58
66752;SHT31;53663;42.676;23.238;2022-11-15T05:45:23;3.54;89.12
66752;SHT31;53663;42.676;23.238;2022-11-15T05:48:08;3.66;89.66
66752;SHT31;53663;42.676;23.238;2022-11-15T05:50:53;3.71;89.37
66752;SHT31;53663;42.676;23.238;2022-11-15T05:53:37;3.87;89.17
66752;SHT31;53663;42.676;23.238;2022-11-15T05:56:21;3.90;88.95
66752;SHT31;53663;42.676;23.238;2022-11-15T05:59:07;3.97;88.59
66752;SHT31;53663;42.676;23.238;2022-11-15T06:01:52;3.83;89.09
66752;SHT31;53663;42.676;23.238;2022-11-15T06:04:36;3.48;90.40
66752;SHT31;53663;42.676;23.238;2022-11-15T06:07:19;3.74;90.74
66752;SHT31;53663;42.676;23.238;2022-11-15T06:10:04;3.79;90.78
66752;SHT31;53663;42.676;23.238;2022-11-15T06:12:56;3.82;90.79
66752;SHT31;53663;42.676;23.238;2022-11-15T06:15:40;3.94;90.91
66752;SHT31;53663;42.676;23.238;2022-11-15T06:18:24;4.13;90.65
66752;SHT31;53663;42.676;23.238;2022-11-15T06:21:08;4.21;90.69
66752;SHT31;53663;42.676;23.238;2022-11-15T06:23:52;4.29;90.53
66752;SHT31;53663;42.676;23.238;2022-11-15T06:26:36;4.14;90.74
66752;SHT31;53663;42.676;23.238;2022-11-15T06:29:20;4.27;90.68
66752;SHT31;53663;42.676;23.238;2022-11-15T06:32:04;4.48;89.96
66752;SHT31;53663;42.676;23.238;2022-11-15T06:34:48;4.48;89.86
66752;SHT31;53663;42.676;23.238;2022-11-15T06:37:33;4.43;89.96
66752;SHT31;53663;42.676;23.238;2022-11-15T06:40:17;4.48;90.33
66752;SHT31;53663;42.676;23.238;2022-11-15T06:43:02;4.61;90.03
66752;SHT31;53663;42.676;23.238;2022-11-15T06:45:46;4.57;89.72
66752;SHT31;53663;42.676;23.238;2022-11-15T06:48:31;4.69;90.00
66752;SHT31;53663;42.676;23.238;2022-11-15T06:51:15;4.48;89.86
66752;SHT31;53663;42.676;23.238;2022-11-15T06:53:59;4.67;88.95
66752;SHT31;53663;42.676;23.238;2022-11-15T06:56:43;4.64;88.76
66752;SHT31;53663;42.676;23.238;2022-11-15T06:59:27;4.75;88.80
66752;SHT31;53663;42.676;23.238;2022-11-15T07:02:13;4.73;88.84
66752;SHT31;53663;42.676;23.238;2022-11-15T07:04:57;4.68;89.38
66752;SHT31;53663;42.676;23.238;2022-11-15T07:07:41;4.83;88.81
66752;SHT31;53663;42.676;23.238;2022-11-15T07:10:25;4.73;88.63
66752;SHT31;53663;42.676;23.238;2022-11-15T07:13:10;4.68;89.26
66752;SHT31;53663;42.676;23.238;2022-11-15T07:15:54;4.51;89.37
66752;SHT31;53663;42.676;23.238;2022-11-15T07:18:39;4.58;89.50
66752;SHT31;53663;42.676;23.238;2022-11-15T07:21:24;4.73;88.96
66752;SHT31;53663;42.676;23.238;2022-11-15T07:24:08;4.75;88.88
66752;SHT31;53663;42.676;23.238;2022-11-15T07:26:52;4.41;89.29
66752;SHT31;53663;42.676;23.238;2022-11-15T07:29:36;4.33;90.98
66752;SHT31;53663;42.676;23.238;2022-11-15T07:32:20;4.54;90.32
66752;SHT31;53663;42.676;23.238;2022-11-15T07:35:04;4.58;90.36
66752;SHT31;53663;42.676;23.238;2022-11-15T07:37:59;4.61;90.29
66752;SHT31;53663;42.676;23.238;2022-11-15T07:40:44;4.67;90.00
66752;SHT31;53663;42.676;23.238;2022-11-15T07:43:28;4.50;90.31
66752;SHT31;53663;42.676;23.238;2022-11-15T07:46:13;4.38;90.68
66752;SHT31;53663;42.676;23.238;2022-11-15T07:48:57;4.41;91.01
66752;SHT31;53663;42.676;23.238;2022-11-15T07:51:41;4.71;90.52
66752;SHT31;53663;42.676;23.238;2022-11-15T07:54:25;4.85;89.41
66752;SHT31;53663;42.676;23.238;2022-11-15T07:57:09;4.86;89.41
66752;SHT31;53663;42.676;23.238;2022-11-15T07:59:53;5.00;89.17
66752;SHT31;53663;42.676;23.238;2022-11-15T08:02:37;5.12;88.66
66752;SHT31;53663;42.676;23.238;2022-11-15T08:05:21;5.19;88.74
66752;SHT31;53663;42.676;23.238;2022-11-15T08:08:06;5.40;88.21
66752;SHT31;53663;42.676;23.238;2022-11-15T08:10:50;5.40;87.87
66752;SHT31;53663;42.676;23.238;2022-11-15T08:13:35;4.99;88.95
66752;SHT31;53663;42.676;23.238;2022-11-15T08:16:19;5.05;89.34
66752;SHT31;53663;42.676;23.238;2022-11-15T08:19:03;5.26;88.72
66752;SHT31;53663;42.676;23.238;2022-11-15T08:21:47;5.37;88.01
66752;SHT31;53663;42.676;23.238;2022-11-15T08:24:31;5.39;86.23
66752;SHT31;53663;42.676;23.238;2022-11-15T08:27:15;5.31;87.34
66752;SHT31;53663;42.676;23.238;2022-11-15T08:29:59;5.41;87.54
66752;SHT31;53663;42.676;23.238;2022-11-15T08:32:43;5.51;86.65
66752;SHT31;53663;42.676;23.238;2022-11-15T08:35:27;5.58;87.04
66752;SHT31;53663;42.676;23.238;2022-11-15T08:38:12;5.82;86.26
66752;SHT31;53663;42.676;23.238;2022-11-15T08:41:02;5.81;86.35
66752;SHT31;53663;42.676;23.238;2022-11-15T08:43:47;5.91;85.44
66752;SHT31;53663;42.676;23.238;2022-11-15T08:46:31;5.67;86.54
66752;SHT31;53663;42.676;23.238;2022-11-15T08:49:15;5.48;87.38
66752;SHT31;53663;42.676;23.238;2022-11-15T08:51:59;5.54;87.83
66752;SHT31;53663;42.676;23.238;2022-11-15T08:54:43;5.43;87.80
66752;SHT31;53663;42.676;23.238;2022-11-15T08:57:30;5.68;87.69
66752;SHT31;53663;42.676;23.238;2022-11-15T09:00:15;5.61;87.37
66752;SHT31;53663;42.676;23.238;2022-11-15T09:02:59;5.97;85.92
66752;SHT31;53663;42.676;23.238;2022-11-15T09:05:43;5.94;85.35
66752;SHT31;53663;42.676;23.238;2022-11-15T09:08:30;5.72;86.66
66752;SHT31;53663;42.676;23.238;2022-11-15T09:11:15;5.87;86.47
66752;SHT31;53663;42.676;23.238;2022-11-15T09:14:01;6.22;84.12
66752;SHT31;53663;42.676;23.238;2022-11-15T09:16:45;6.25;84.05
66752;SHT31;53663;42.676;23.238;2022-11-15T09:19:29;6.33;83.29
66752;SHT31;53663;42.676;23.238;2022-11-15T09:22:13;6.13;84.44
66752;SHT31;53663;42.676;23.238;2022-11-15T09:24:57;6.32;84.40
66752;SHT31;53663;42.676;23.238;2022-11-15T09:27:41;6.44;83.82
66752;SHT31;53663;42.676;23.238;2022-11-15T09:30:25;6.61;81.84
66752;SHT31;53663;42.676;23.238;2022-11-15T09:33:11;6.01;83.76
66752;SHT31;53663;42.676;23.238;2022-11-15T09:36:01;6.30;83.37
66752;SHT31;53663;42.676;23.238;2022-11-15T09:38:46;5.89;84.36
66752;SHT31;53663;42.676;23.238;2022-11-15T09:44:54;6.54;84.31
66752;SHT31;53663;42.676;23.238;2022-11-15T09:51:04;6.64;83.04
66752;SHT31;53663;42.676;23.238;2022-11-15T09:53:45;6.71;82.08
66752;SHT31;53663;42.676;23.238;2022-11-15T09:56:21;6.94;81.26
66752;SHT31;53663;42.676;23.238;2022-11-15T10:04:21;7.33;78.35
66752;SHT31;53663;42.676;23.238;2022-11-15T10:06:55;7.33;78.35
66752;SHT31;53663;42.676;23.238;2022-11-15T10:09:31;7.54;77.73
66752;SHT31;53663;42.676;23.238;2022-11-15T10:11:59;8.29;76.54
66752;SHT31;53663;42.676;23.238;2022-11-15T10:14:27;10.00;71.74
66752;SHT31;53663;42.676;23.238;2022-11-15T10:17:26;12.40;62.89
66752;SHT31;53663;42.676;23.238;2022-11-15T10:25:24;16.17;49.04
66752;SHT31;53663;42.676;23.238;2022-11-15T10:28:11;17.62;45.58
66752;SHT31;53663;42.676;23.238;2022-11-15T10:30:40;19.11;41.75
66752;SHT31;53663;42.676;23.238;2022-11-15T10:33:26;21.13;36.35
66752;SHT31;53663;42.676;23.238;2022-11-15T10:44:07;24.79;30.66
66752;SHT31;53663;42.676;23.238;2022-11-15T10:46:35;22.22;34.40
66752;SHT31;53663;42.676;23.238;2022-11-15T10:49:17;23.43;31.08
66752;SHT31;53663;42.676;23.238;2022-11-15T10:51:47;23.90;30.97
66752;SHT31;53663;42.676;23.238;2022-11-15T10:54:18;23.72;30.59
66752;SHT31;53663;42.676;23.238;2022-11-15T10:56:50;22.71;32.24
66752;SHT31;53663;42.676;23.238;2022-11-15T10:59:18;23.70;30.89
66752;SHT31;53663;42.676;23.238;2022-11-15T11:01:47;24.59;29.69
66752;SHT31;53663;42.676;23.238;2022-11-15T11:04:12;25.51;28.22
66752;SHT31;53663;42.676;23.238;2022-11-15T11:07:19;24.93;28.93
66752;SHT31;53663;42.676;23.238;2022-11-15T11:09:57;22.28;32.93
66752;SHT31;53663;42.676;23.238;2022-11-15T11:12:28;23.34;30.74
66752;SHT31;53663;42.676;23.238;2022-11-15T11:14:55;24.13;29.90
66752;SHT31;53663;42.676;23.238;2022-11-15T11:17:40;24.69;29.73
66752;SHT31;53663;42.676;23.238;2022-11-15T11:29:45;24.20;29.84
66752;SHT31;53663;42.676;23.238;2022-11-15T11:35:11;24.52;29.36
66752;SHT31;53663;42.676;23.238;2022-11-15T11:40:39;23.24;31.14
66752;SHT31;53663;42.676;23.238;2022-11-15T11:48:52;23.15;31.43
66752;SHT31;53663;42.676;23.238;2022-11-15T11:51:29;22.74;31.25
66752;SHT31;53663;42.676;23.238;2022-11-15T11:54:03;21.26;35.16
66752;SHT31;53663;42.676;23.238;2022-11-15T11:56:36;19.52;38.50
66752;SHT31;53663;42.676;23.238;2022-11-15T11:59:25;18.52;40.41
66752;SHT31;53663;42.676;23.238;2022-11-15T12:01:51;16.72;44.12
66752;SHT31;53663;42.676;23.238;2022-11-15T12:04:31;17.97;41.79
66752;SHT31;53663;42.676;23.238;2022-11-15T12:07:11;18.06;40.68
66752;SHT31;53663;42.676;23.238;2022-11-15T12:12:16;16.58;44.64
66752;SHT31;53663;42.676;23.238;2022-11-15T12:14:53;17.14;43.76
66752;SHT31;53663;42.676;23.238;2022-11-15T12:17:25;18.43;40.62
66752;SHT31;53663;42.676;23.238;2022-11-15T12:19:55;20.12;36.71
66752;SHT31;53663;42.676;23.238;2022-11-15T12:22:28;19.85;36.72
66752;SHT31;53663;42.676;23.238;2022-11-15T12:25:15;20.20;36.33
66752;SHT31;53663;42.676;23.238;2022-11-15T12:30:19;20.41;36.50
66752;SHT31;53663;42.676;23.238;2022-11-15T12:32:55;19.41;38.50
66752;SHT31;53663;42.676;23.238;2022-11-15T12:35:42;20.16;36.91
66752;SHT31;53663;42.676;23.238;2022-11-15T12:38:11;20.64;35.61
66752;SHT31;53663;42.676;23.238;2022-11-15T12:41:17;20.10;37.44
66752;SHT31;53663;42.676;23.238;2022-11-15T12:43:44;18.39;40.37
66752;SHT31;53663;42.676;23.238;2022-11-15T12:46:18;18.87;39.97
66752;SHT31;53663;42.676;23.238;2022-11-15T12:48:48;19.39;38.11
66752;SHT31;53663;42.676;23.238;2022-11-15T12:51:14;18.81;39.43
66752;SHT31;53663;42.676;23.238;2022-11-15T12:53:39;18.98;39.57
66752;SHT31;53663;42.676;23.238;2022-11-15T13:06:38;17.69;42.48
66752;SHT31;53663;42.676;23.238;2022-11-15T13:14:58;16.31;45.49
66752;SHT31;53663;42.676;23.238;2022-11-15T13:22:25;17.09;43.74
66752;SHT31;53663;42.676;23.238;2022-11-15T13:27:50;17.53;42.64
66752;SHT31;53663;42.676;23.238;2022-11-15T13:30:21;16.10;45.54
66752;SHT31;53663;42.676;23.238;2022-11-15T13:32:48;15.42;48.02
66752;SHT31;53663;42.676;23.238;2022-11-15T13:35:25;14.76;49.67
66752;SHT31;53663;42.676;23.238;2022-11-15T13:37:53;15.06;48.76
66752;SHT31;53663;42.676;23.238;2022-11-15T13:40:26;14.59;49.49
66752;SHT31;53663;42.676;23.238;2022-11-15T13:42:58;13.71;52.20
66752;SHT31;53663;42.676;23.238;2022-11-15T13:45:24;13.28;53.57
66752;SHT31;53663;42.676;23.238;2022-11-15T13:47:57;12.85;55.13
66752;SHT31;53663;42.676;23.238;2022-11-15T13:50:29;12.74;55.07
66752;SHT31;53663;42.676;23.238;2022-11-15T13:52:58;12.46;56.26
66752;SHT31;53663;42.676;23.238;2022-11-15T13:55:25;12.29;57.12
66752;SHT31;53663;42.676;23.238;2022-11-15T13:57:58;11.45;59.51
66752;SHT31;53663;42.676;23.238;2022-11-15T14:00:37;10.71;62.38
66752;SHT31;53663;42.676;23.238;2022-11-15T14:03:19;10.47;63.14
66752;SHT31;53663;42.676;23.238;2022-11-15T14:06:09;10.51;63.55
66752;SHT31;53663;42.676;23.238;2022-11-15T14:11:25;10.64;63.75
66752;SHT31;53663;42.676;23.238;2022-11-15T14:16:35;10.61;63.61
66752;SHT31;53663;42.676;23.238;2022-11-15T14:19:01;10.62;63.94
66752;SHT31;53663;42.676;23.238;2022-11-15T14:21:27;10.42;64.33
66752;SHT31;53663;42.676;23.238;2022-11-15T14:24:13;10.38;64.65
66752;SHT31;53663;42.676;23.238;2022-11-15T14:26:39;10.22;64.92
66752;SHT31;53663;42.676;23.238;2022-11-15T14:29:29;9.96;66.12
66752;SHT31;53663;42.676;23.238;2022-11-15T14:32:22;9.82;66.72
66752;SHT31;53663;42.676;23.238;2022-11-15T14:34:53;9.75;66.70
66752;SHT31;53663;42.676;23.238;2022-11-15T14:37:30;9.60;67.20
66752;SHT31;53663;42.676;23.238;2022-11-15T14:40:01;9.45;67.85
66752;SHT31;53663;42.676;23.238;2022-11-15T14:42:27;9.45;67.99
66752;SHT31;53663;42.676;23.238;2022-11-15T14:44:52;9.17;68.77
66752;SHT31;53663;42.676;23.238;2022-11-15T14:47:18;9.12;68.94
66752;SHT31;53663;42.676;23.238;2022-11-15T14:49:44;8.88;69.69
66752;SHT31;53663;42.676;23.238;2022-11-15T14:52:30;8.76;70.05
66752;SHT31;53663;42.676;23.238;2022-11-15T14:55:00;8.41;71.60
66752;SHT31;53663;42.676;23.238;2022-11-15T14:57:28;8.06;72.60
66752;SHT31;53663;42.676;23.238;2022-11-15T14:59:53;8.11;72.72
66752;SHT31;53663;42.676;23.238;2022-11-15T15:02:22;8.16;72.38
66752;SHT31;53663;42.676;23.238;2022-11-15T15:04:47;8.11;72.52
66752;SHT31;53663;42.676;23.238;2022-11-15T15:07:14;8.12;72.73
66752;SHT31;53663;42.676;23.238;2022-11-15T15:09:39;8.06;72.65
66752;SHT31;53663;42.676;23.238;2022-11-15T15:12:20;8.06;73.03
66752;SHT31;53663;42.676;23.238;2022-11-15T15:14:48;8.04;72.68
66752;SHT31;53663;42.676;23.238;2022-11-15T15:17:14;8.04;72.81
66752;SHT31;53663;42.676;23.238;2022-11-15T15:19:40;8.06;72.62
66752;SHT31;53663;42.676;23.238;2022-11-15T15:22:13;8.12;72.38
66752;SHT31;53663;42.676;23.238;2022-11-15T15:24:39;8.06;72.85
66752;SHT31;53663;42.676;23.238;2022-11-15T15:27:04;7.64;74.65
66752;SHT31;53663;42.676;23.238;2022-11-15T15:29:30;7.66;74.79
66752;SHT31;53663;42.676;23.238;2022-11-15T15:31:55;7.52;75.17
66752;SHT31;53663;42.676;23.238;2022-11-15T15:34:21;7.26;76.57
66752;SHT31;53663;42.676;23.238;2022-11-15T15:36:46;7.02;77.47
66752;SHT31;53663;42.676;23.238;2022-11-15T15:39:12;6.70;79.03
66752;SHT31;53663;42.676;23.238;2022-11-15T15:41:38;6.64;79.50
66752;SHT31;53663;42.676;23.238;2022-11-15T15:44:03;6.77;79.08
66752;SHT31;53663;42.676;23.238;2022-11-15T15:46:29;6.74;79.32
66752;SHT31;53663;42.676;23.238;2022-11-15T15:48:54;6.76;79.75
66752;SHT31;53663;42.676;23.238;2022-11-15T15:51:20;7.01;78.71
66752;SHT31;53663;42.676;23.238;2022-11-15T15:53:46;7.11;78.30
66752;SHT31;53663;42.676;23.238;2022-11-15T15:56:12;7.29;77.51
66752;SHT31;53663;42.676;23.238;2022-11-15T15:58:37;7.37;76.97
66752;SHT31;53663;42.676;23.238;2022-11-15T16:01:03;7.43;76.76
66752;SHT31;53663;42.676;23.238;2022-11-15T16:03:29;7.50;76.38
66752;SHT31;53663;42.676;23.238;2022-11-15T16:05:54;7.52;76.10
66752;SHT31;53663;42.676;23.238;2022-11-15T16:08:22;7.59;75.92
66752;SHT31;53663;42.676;23.238;2022-11-15T16:10:49;7.64;75.69
66752;SHT31;53663;42.676;23.238;2022-11-15T16:13:14;7.66;75.68
66752;SHT31;53663;42.676;23.238;2022-11-15T16:15:42;7.66;75.65
66752;SHT31;53663;42.676;23.238;2022-11-15T16:18:15;7.57;76.09
66752;SHT31;53663;42.676;23.238;2022-11-15T16:20:43;7.54;76.29
66752;SHT31;53663;42.676;23.238;2022-11-15T16:23:15;7.54;76.19
66752;SHT31;53663;42.676;23.238;2022-11-15T16:25:45;7.57;75.93
66752;SHT31;53663;42.676;23.238;2022-11-15T16:28:30;7.57;76.09
66752;SHT31;53663;42.676;23.238;2022-11-15T16:33:29;7.46;76.27
66752;SHT31;53663;42.676;23.238;2022-11-15T16:35:54;7.35;76.29
66752;SHT31;53663;42.676;23.238;2022-11-15T16:38:20;7.27;76.38
66752;SHT31;53663;42.676;23.238;2022-11-15T16:40:46;7.29;76.21
66752;SHT31;53663;42.676;23.238;2022-11-15T16:43:12;7.25;76.73
66752;SHT31;53663;42.676;23.238;2022-11-15T16:45:37;7.23;77.03
66752;SHT31;53663;42.676;23.238;2022-11-15T16:48:03;7.11;77.15
66752;SHT31;53663;42.676;23.238;2022-11-15T16:50:31;7.01;77.97
66752;SHT31;53663;42.676;23.238;2022-11-15T16:52:59;6.40;80.49
66752;SHT31;53663;42.676;23.238;2022-11-15T16:55:27;6.19;81.46
66752;SHT31;53663;42.676;23.238;2022-11-15T16:57:54;5.92;82.51
66752;SHT31;53663;42.676;23.238;2022-11-15T17:00:20;5.75;83.33
66752;SHT31;53663;42.676;23.238;2022-11-15T17:02:47;5.75;83.65
66752;SHT31;53663;42.676;23.238;2022-11-15T17:05:14;5.71;83.64
66752;SHT31;53663;42.676;23.238;2022-11-15T17:07:40;5.57;84.46
66752;SHT31;53663;42.676;23.238;2022-11-15T17:10:08;5.78;84.08
66752;SHT31;53663;42.676;23.238;2022-11-15T17:12:35;5.87;83.27
66752;SHT31;53663;42.676;23.238;2022-11-15T17:15:01;5.98;82.71
66752;SHT31;53663;42.676;23.238;2022-11-15T17:17:27;6.08;82.19
66752;SHT31;53663;42.676;23.238;2022-11-15T17:19:53;6.15;81.92
66752;SHT31;53663;42.676;23.238;2022-11-15T17:22:19;6.19;81.38
66752;SHT31;53663;42.676;23.238;2022-11-15T17:24:45;6.32;80.64
66752;SHT31;53663;42.676;23.238;2022-11-15T17:27:10;6.23;80.58
66752;SHT31;53663;42.676;23.238;2022-11-15T17:29:36;6.15;80.60
66752;SHT31;53663;42.676;23.238;2022-11-15T17:32:01;6.23;80.56
66752;SHT31;53663;42.676;23.238;2022-11-15T17:34:27;6.23;80.56
66752;SHT31;53663;42.676;23.238;2022-11-15T17:36:52;6.20;80.56
66752;SHT31;53663;42.676;23.238;2022-11-15T17:39:18;6.22;79.98
66752;SHT31;53663;42.676;23.238;2022-11-15T17:41:45;6.16;80.24
66752;SHT31;53663;42.676;23.238;2022-11-15T17:44:11;6.15;80.59
66752;SHT31;53663;42.676;23.238;2022-11-15T17:46:36;6.18;80.30
66752;SHT31;53663;42.676;23.238;2022-11-15T17:49:02;6.20;79.89
66752;SHT31;53663;42.676;23.238;2022-11-15T17:51:28;6.15;80.05
66752;SHT31;53663;42.676;23.238;2022-11-15T17:53:54;6.15;80.31
66752;SHT31;53663;42.676;23.238;2022-11-15T17:56:21;6.09;80.50
66752;SHT31;53663;42.676;23.238;2022-11-15T17:58:55;6.13;80.45
66752;SHT31;53663;42.676;23.238;2022-11-15T18:01:27;6.10;80.17
66752;SHT31;53663;42.676;23.238;2022-11-15T18:03:54;6.02;81.01
66752;SHT31;53663;42.676;23.238;2022-11-15T18:06:22;6.06;80.98
66752;SHT31;53663;42.676;23.238;2022-11-15T18:08:49;6.08;80.50
66752;SHT31;53663;42.676;23.238;2022-11-15T18:11:19;6.09;80.29
66752;SHT31;53663;42.676;23.238;2022-11-15T18:13:53;6.05;80.11
66752;SHT31;53663;42.676;23.238;2022-11-15T18:16:21;6.02;79.89
66752;SHT31;53663;42.676;23.238;2022-11-15T18:18:47;5.99;79.62
66752;SHT31;53663;42.676;23.238;2022-11-15T18:21:15;5.91;80.11
66752;SHT31;53663;42.676;23.238;2022-11-15T18:23:42;5.87;79.90
66752;SHT31;53663;42.676;23.238;2022-11-15T18:26:11;5.79;79.79
66752;SHT31;53663;42.676;23.238;2022-11-15T18:28:41;5.77;80.30
66752;SHT31;53663;42.676;23.238;2022-11-15T18:31:20;5.74;79.83
66752;SHT31;53663;42.676;23.238;2022-11-15T18:33:47;5.72;79.99
66752;SHT31;53663;42.676;23.238;2022-11-15T18:36:19;5.68;80.41